sensor_id;sensor_type;location;lat;lon;timestamp;temperature;humidity
18581;DHT22;9420;50.876;7.012;2022-07-29T00:01:52;19.20;99.90
18581;DHT22;9420;50.876;7.012;2022-07-29T00:04:20;19.00;99.90
18581;DHT22;9420;50.876;7.012;2022-07-29T00:06:47;18.90;99.90
18581;DHT22;9420;50.876;7.012;2022-07-29T00:09:15;18.90;99.90
18581;DHT22;9420;50.876;7.012;2022-07-29T00:11:42;18.90;99.90
18581;DHT22;9420;50.876;7.012;2022-07-29T00:14:09;18.80;99.90
18581;DHT22;9420;50.876;7.012;2022-07-29T00:16:36;18.90;99.90
18581;DHT22;9420;50.876;7.012;2022-07-29T00:19:04;19.00;99.90
18581;DHT22;9420;50.876;7.012;2022-07-29T00:21:31;19.20;99.90
18581;DHT22;9420;50.876;7.012;2022-07-29T00:23:58;19.30;99.90
18581;DHT22;9420;50.876;7.012;2022-07-29T00:26:27;19.40;99.90
18581;DHT22;9420;50.876;7.012;2022-07-29T00:28:57;19.40;99.90
18581;DHT22;9420;50.876;7.012;2022-07-29T00:31:25;19.40;99.90
18581;DHT22;9420;50.876;7.012;2022-07-29T00:33:53;19.20;99.90
18581;DHT22;9420;50.876;7.012;2022-07-29T00:36:21;19.10;99.90
18581;DHT22;9420;50.876;7.012;2022-07-29T00:38:47;19.10;99.90
18581;DHT22;9420;50.876;7.012;2022-07-29T00:41:15;19.00;99.90
18581;DHT22;9420;50.876;7.012;2022-07-29T00:43:45;19.00;99.90
18581;DHT22;9420;50.876;7.012;2022-07-29T00:46:12;19.00;99.90
18581;DHT22;9420;50.876;7.012;2022-07-29T00:48:39;18.90;99.90
18581;DHT22;9420;50.876;7.012;2022-07-29T00:51:07;19.00;99.90
18581;DHT22;9420;50.876;7.012;2022-07-29T00:53:36;19.00;99.90
18581;DHT22;9420;50.876;7.012;2022-07-29T00:56:04;19.00;99.90
18581;DHT22;9420;50.876;7.012;2022-07-29T00:58:31;18.90;99.90
18581;DHT22;9420;50.876;7.012;2022-07-29T01:01:00;18.90;99.90
18581;DHT22;9420;50.876;7.012;2022-07-29T01:03:27;18.80;99.90
18581;DHT22;9420;50.876;7.012;2022-07-29T01:05:54;18.80;99.90
18581;DHT22;9420;50.876;7.012;2022-07-29T01:08:23;18.80;99.90
18581;DHT22;9420;50.876;7.012;2022-07-29T01:10:51;18.80;99.90
18581;DHT22;9420;50.876;7.012;2022-07-29T01:13:20;18.70;99.90
18581;DHT22;9420;50.876;7.012;2022-07-29T01:16:07;18.80;99.90
18581;DHT22;9420;50.876;7.012;2022-07-29T01:18:42;18.90;99.90
18581;DHT22;9420;50.876;7.012;2022-07-29T01:21:33;19.00;99.90
18581;DHT22;9420;50.876;7.012;2022-07-29T01:24:40;19.00;99.90
18581;DHT22;9420;50.876;7.012;2022-07-29T01:27:45;19.00;99.90
18581;DHT22;9420;50.876;7.012;2022-07-29T01:30:27;19.00;99.90
18581;DHT22;9420;50.876;7.012;2022-07-29T01:33:01;19.00;99.90
18581;DHT22;9420;50.876;7.012;2022-07-29T01:35:36;19.00;99.90
18581;DHT22;9420;50.876;7.012;2022-07-29T01:38:09;19.00;99.90
18581;DHT22;9420;50.876;7.012;2022-07-29T01:40:45;18.90;99.90
18581;DHT22;9420;50.876;7.012;2022-07-29T01:43:17;18.90;99.90
18581;DHT22;9420;50.876;7.012;2022-07-29T01:45:52;18.90;99.90
18581;DHT22;9420;50.876;7.012;2022-07-29T01:48:31;18.90;99.90
18581;DHT22;9420;50.876;7.012;2022-07-29T01:51:07;18.80;99.90
18581;DHT22;9420;50.876;7.012;2022-07-29T01:53:45;18.90;99.90
18581;DHT22;9420;50.876;7.012;2022-07-29T01:56:18;18.90;99.90
18581;DHT22;9420;50.876;7.012;2022-07-29T01:58:49;18.90;99.90
18581;DHT22;9420;50.876;7.012;2022-07-29T02:01:21;18.90;99.90
18581;DHT22;9420;50.876;7.012;2022-07-29T02:03:53;18.80;99.90
18581;DHT22;9420;50.876;7.012;2022-07-29T02:06:22;18.90;99.90
18581;DHT22;9420;50.876;7.012;2022-07-29T02:08:52;18.90;99.90
18581;DHT22;9420;50.876;7.012;2022-07-29T02:11:21;18.90;99.90
18581;DHT22;9420;50.876;7.012;2022-07-29T02:13:49;18.80;99.90
18581;DHT22;9420;50.876;7.012;2022-07-29T02:16:22;18.70;99.90
18581;DHT22;9420;50.876;7.012;2022-07-29T02:18:54;18.50;99.90
18581;DHT22;9420;50.876;7.012;2022-07-29T02:21:24;18.40;99.90
18581;DHT22;9420;50.876;7.012;2022-07-29T02:23:54;18.40;99.90
18581;DHT22;9420;50.876;7.012;2022-07-29T02:26:27;18.30;99.90
18581;DHT22;9420;50.876;7.012;2022-07-29T02:28:57;18.20;99.90
18581;DHT22;9420;50.876;7.012;2022-07-29T02:31:31;18.10;99.90
18581;DHT22;9420;50.876;7.012;2022-07-29T02:34:03;18.00;99.90
18581;DHT22;9420;50.876;7.012;2022-07-29T02:36:34;18.00;99.90
18581;DHT22;9420;50.876;7.012;2022-07-29T02:39:02;17.90;99.90
18581;DHT22;9420;50.876;7.012;2022-07-29T02:41:38;17.80;99.90
18581;DHT22;9420;50.876;7.012;2022-07-29T02:44:10;17.70;99.90
18581;DHT22;9420;50.876;7.012;2022-07-29T02:46:47;17.60;99.90
18581;DHT22;9420;50.876;7.012;2022-07-29T02:49:27;17.90;99.90
18581;DHT22;9420;50.876;7.012;2022-07-29T02:52:03;18.00;99.90
18581;DHT22;9420;50.876;7.012;2022-07-29T02:54:38;18.10;99.90
18581;DHT22;9420;50.876;7.012;2022-07-29T02:57:13;17.90;99.90
18581;DHT22;9420;50.876;7.012;2022-07-29T02:59:48;17.80;99.90
18581;DHT22;9420;50.876;7.012;2022-07-29T03:02:21;17.70;99.90
18581;DHT22;9420;50.876;7.012;2022-07-29T03:04:49;17.70;99.90
18581;DHT22;9420;50.876;7.012;2022-07-29T03:07:19;17.70;99.90
18581;DHT22;9420;50.876;7.012;2022-07-29T03:09:47;17.60;99.90
18581;DHT22;9420;50.876;7.012;2022-07-29T03:12:17;17.70;99.90
18581;DHT22;9420;50.876;7.012;2022-07-29T03:14:46;17.80;99.90
18581;DHT22;9420;50.876;7.012;2022-07-29T03:17:15;17.70;99.90
18581;DHT22;9420;50.876;7.012;2022-07-29T03:19:43;17.80;99.90
18581;DHT22;9420;50.876;7.012;2022-07-29T03:22:11;18.00;99.90
18581;DHT22;9420;50.876;7.012;2022-07-29T03:24:38;18.00;99.90
18581;DHT22;9420;50.876;7.012;2022-07-29T03:27:05;18.00;99.90
18581;DHT22;9420;50.876;7.012;2022-07-29T03:29:33;18.00;99.90
18581;DHT22;9420;50.876;7.012;2022-07-29T03:32:02;18.10;99.90
18581;DHT22;9420;50.876;7.012;2022-07-29T03:34:30;18.20;99.90
18581;DHT22;9420;50.876;7.012;2022-07-29T03:36:59;18.30;99.90
18581;DHT22;9420;50.876;7.012;2022-07-29T03:39:31;18.20;99.90
18581;DHT22;9420;50.876;7.012;2022-07-29T03:42:02;17.90;99.90
18581;DHT22;9420;50.876;7.012;2022-07-29T03:44:32;17.80;99.90
18581;DHT22;9420;50.876;7.012;2022-07-29T03:47:02;17.80;99.90
18581;DHT22;9420;50.876;7.012;2022-07-29T03:49:35;17.80;99.90
18581;DHT22;9420;50.876;7.012;2022-07-29T03:52:05;17.90;99.90
18581;DHT22;9420;50.876;7.012;2022-07-29T03:54:33;18.00;99.90
18581;DHT22;9420;50.876;7.012;2022-07-29T03:57:02;18.00;99.90
18581;DHT22;9420;50.876;7.012;2022-07-29T03:59:31;18.10;99.90
18581;DHT22;9420;50.876;7.012;2022-07-29T04:02:01;18.20;99.90
18581;DHT22;9420;50.876;7.012;2022-07-29T04:04:32;18.30;99.90
18581;DHT22;9420;50.876;7.012;2022-07-29T04:07:00;18.30;99.90
18581;DHT22;9420;50.876;7.012;2022-07-29T04:09:29;18.30;99.90
18581;DHT22;9420;50.876;7.012;2022-07-29T04:11:56;18.30;99.90
18581;DHT22;9420;50.876;7.012;2022-07-29T04:14:23;18.40;99.90
18581;DHT22;9420;50.876;7.012;2022-07-29T04:16:50;18.50;99.90
18581;DHT22;9420;50.876;7.012;2022-07-29T04:19:18;18.50;99.90
18581;DHT22;9420;50.876;7.012;2022-07-29T04:21:45;18.60;99.90
18581;DHT22;9420;50.876;7.012;2022-07-29T04:24:12;18.70;99.90
18581;DHT22;9420;50.876;7.012;2022-07-29T04:26:41;18.70;99.90
18581;DHT22;9420;50.876;7.012;2022-07-29T04:29:08;18.80;99.90
18581;DHT22;9420;50.876;7.012;2022-07-29T04:31:37;18.90;99.90
18581;DHT22;9420;50.876;7.012;2022-07-29T04:34:04;18.90;99.90
18581;DHT22;9420;50.876;7.012;2022-07-29T04:36:31;18.90;99.90
18581;DHT22;9420;50.876;7.012;2022-07-29T04:38:58;18.90;99.90
18581;DHT22;9420;50.876;7.012;2022-07-29T04:41:26;18.90;99.90
18581;DHT22;9420;50.876;7.012;2022-07-29T04:43:55;19.00;99.90
18581;DHT22;9420;50.876;7.012;2022-07-29T04:46:22;19.00;99.90
18581;DHT22;9420;50.876;7.012;2022-07-29T04:48:49;19.10;99.90
18581;DHT22;9420;50.876;7.012;2022-07-29T04:51:16;19.10;99.90
18581;DHT22;9420;50.876;7.012;2022-07-29T04:53:43;19.10;99.90
18581;DHT22;9420;50.876;7.012;2022-07-29T04:56:11;19.20;99.90
18581;DHT22;9420;50.876;7.012;2022-07-29T04:58:38;19.10;99.90
18581;DHT22;9420;50.876;7.012;2022-07-29T05:01:06;19.10;99.90
18581;DHT22;9420;50.876;7.012;2022-07-29T05:03:33;19.10;99.90
18581;DHT22;9420;50.876;7.012;2022-07-29T05:06:00;19.20;99.90
18581;DHT22;9420;50.876;7.012;2022-07-29T05:08:27;19.20;99.90
18581;DHT22;9420;50.876;7.012;2022-07-29T05:10:55;19.20;99.90
18581;DHT22;9420;50.876;7.012;2022-07-29T05:13:22;19.20;99.90
18581;DHT22;9420;50.876;7.012;2022-07-29T05:15:49;19.20;99.90
18581;DHT22;9420;50.876;7.012;2022-07-29T05:18:18;19.30;99.90
18581;DHT22;9420;50.876;7.012;2022-07-29T05:20:46;19.40;99.90
18581;DHT22;9420;50.876;7.012;2022-07-29T05:23:13;19.40;99.90
18581;DHT22;9420;50.876;7.012;2022-07-29T05:25:40;19.40;99.90
18581;DHT22;9420;50.876;7.012;2022-07-29T05:28:07;19.50;99.90
18581;DHT22;9420;50.876;7.012;2022-07-29T05:30:34;19.50;99.90
18581;DHT22;9420;50.876;7.012;2022-07-29T05:33:02;19.50;99.90
18581;DHT22;9420;50.876;7.012;2022-07-29T05:35:30;19.60;99.90
18581;DHT22;9420;50.876;7.012;2022-07-29T05:37:57;19.60;99.90
18581;DHT22;9420;50.876;7.012;2022-07-29T05:40:25;19.60;99.90
18581;DHT22;9420;50.876;7.012;2022-07-29T05:42:51;19.70;99.90
18581;DHT22;9420;50.876;7.012;2022-07-29T05:45:19;19.70;99.90
18581;DHT22;9420;50.876;7.012;2022-07-29T05:47:46;19.80;99.90
18581;DHT22;9420;50.876;7.012;2022-07-29T05:50:13;19.80;99.90
18581;DHT22;9420;50.876;7.012;2022-07-29T05:52:41;19.80;99.90
18581;DHT22;9420;50.876;7.012;2022-07-29T05:55:09;19.90;99.90
18581;DHT22;9420;50.876;7.012;2022-07-29T05:57:36;19.90;99.90
18581;DHT22;9420;50.876;7.012;2022-07-29T06:00:04;19.90;99.90
18581;DHT22;9420;50.876;7.012;2022-07-29T06:02:33;19.90;99.90
18581;DHT22;9420;50.876;7.012;2022-07-29T06:05:00;20.00;99.90
18581;DHT22;9420;50.876;7.012;2022-07-29T06:07:27;20.10;99.90
18581;DHT22;9420;50.876;7.012;2022-07-29T06:09:55;20.00;99.90
18581;DHT22;9420;50.876;7.012;2022-07-29T06:12:22;20.10;99.90
18581;DHT22;9420;50.876;7.012;2022-07-29T06:14:49;20.20;99.90
18581;DHT22;9420;50.876;7.012;2022-07-29T06:17:16;20.20;99.90
18581;DHT22;9420;50.876;7.012;2022-07-29T06:19:44;20.00;99.90
18581;DHT22;9420;50.876;7.012;2022-07-29T06:22:11;20.00;99.90
18581;DHT22;9420;50.876;7.012;2022-07-29T06:24:38;20.00;99.90
18581;DHT22;9420;50.876;7.012;2022-07-29T06:27:10;19.80;99.90
18581;DHT22;9420;50.876;7.012;2022-07-29T06:29:38;19.80;99.90
18581;DHT22;9420;50.876;7.012;2022-07-29T06:32:06;19.90;99.90
18581;DHT22;9420;50.876;7.012;2022-07-29T06:34:34;19.90;99.90
18581;DHT22;9420;50.876;7.012;2022-07-29T06:37:05;19.80;99.90
18581;DHT22;9420;50.876;7.012;2022-07-29T06:39:34;19.80;99.90
18581;DHT22;9420;50.876;7.012;2022-07-29T06:42:02;19.90;99.90
18581;DHT22;9420;50.876;7.012;2022-07-29T06:44:31;20.10;99.90
18581;DHT22;9420;50.876;7.012;2022-07-29T06:46:59;20.20;99.90
18581;DHT22;9420;50.876;7.012;2022-07-29T06:49:26;20.20;99.90
18581;DHT22;9420;50.876;7.012;2022-07-29T06:51:53;20.30;99.90
18581;DHT22;9420;50.876;7.012;2022-07-29T06:54:21;20.40;99.90
18581;DHT22;9420;50.876;7.012;2022-07-29T06:56:48;20.50;99.90
18581;DHT22;9420;50.876;7.012;2022-07-29T06:59:15;20.60;99.90
18581;DHT22;9420;50.876;7.012;2022-07-29T07:01:43;20.50;99.90
18581;DHT22;9420;50.876;7.012;2022-07-29T07:04:11;20.50;99.90
18581;DHT22;9420;50.876;7.012;2022-07-29T07:06:39;20.60;99.90
18581;DHT22;9420;50.876;7.012;2022-07-29T07:09:06;20.50;99.90
18581;DHT22;9420;50.876;7.012;2022-07-29T07:11:33;20.70;99.90
18581;DHT22;9420;50.876;7.012;2022-07-29T07:14:01;20.70;99.90
18581;DHT22;9420;50.876;7.012;2022-07-29T07:16:28;20.90;99.90
18581;DHT22;9420;50.876;7.012;2022-07-29T07:18:56;20.90;99.90
18581;DHT22;9420;50.876;7.012;2022-07-29T07:21:23;21.10;99.90
18581;DHT22;9420;50.876;7.012;2022-07-29T07:23:50;21.20;99.90
18581;DHT22;9420;50.876;7.012;2022-07-29T07:26:17;21.20;99.90
18581;DHT22;9420;50.876;7.012;2022-07-29T07:28:45;21.30;99.90
18581;DHT22;9420;50.876;7.012;2022-07-29T07:31:12;21.30;99.90
18581;DHT22;9420;50.876;7.012;2022-07-29T07:33:39;21.20;99.90
18581;DHT22;9420;50.876;7.012;2022-07-29T07:36:08;21.20;99.90
18581;DHT22;9420;50.876;7.012;2022-07-29T07:38:35;21.00;99.90
18581;DHT22;9420;50.876;7.012;2022-07-29T07:41:02;20.80;99.90
18581;DHT22;9420;50.876;7.012;2022-07-29T07:43:30;20.70;99.90
18581;DHT22;9420;50.876;7.012;2022-07-29T07:45:57;20.60;99.90
18581;DHT22;9420;50.876;7.012;2022-07-29T07:48:25;20.40;99.90
18581;DHT22;9420;50.876;7.012;2022-07-29T07:50:52;20.40;99.90
18581;DHT22;9420;50.876;7.012;2022-07-29T07:53:24;20.40;99.90
18581;DHT22;9420;50.876;7.012;2022-07-29T07:55:51;20.30;99.90
18581;DHT22;9420;50.876;7.012;2022-07-29T07:58:18;20.20;99.90
18581;DHT22;9420;50.876;7.012;2022-07-29T08:00:45;20.10;99.90
18581;DHT22;9420;50.876;7.012;2022-07-29T08:03:12;20.00;99.90
18581;DHT22;9420;50.876;7.012;2022-07-29T08:05:40;20.00;99.90
18581;DHT22;9420;50.876;7.012;2022-07-29T08:08:07;19.90;99.90
18581;DHT22;9420;50.876;7.012;2022-07-29T08:10:36;20.00;99.90
18581;DHT22;9420;50.876;7.012;2022-07-29T08:13:23;20.10;99.90
18581;DHT22;9420;50.876;7.012;2022-07-29T08:15:53;20.30;99.90
18581;DHT22;9420;50.876;7.012;2022-07-29T08:18:25;20.50;99.90
18581;DHT22;9420;50.876;7.012;2022-07-29T08:20:53;20.60;99.90
18581;DHT22;9420;50.876;7.012;2022-07-29T08:23:21;20.70;99.90
18581;DHT22;9420;50.876;7.012;2022-07-29T08:25:51;20.70;99.90
18581;DHT22;9420;50.876;7.012;2022-07-29T08:28:19;20.70;99.90
18581;DHT22;9420;50.876;7.012;2022-07-29T08:30:46;20.90;99.90
18581;DHT22;9420;50.876;7.012;2022-07-29T08:33:13;20.90;99.90
18581;DHT22;9420;50.876;7.012;2022-07-29T08:35:40;20.90;99.90
18581;DHT22;9420;50.876;7.012;2022-07-29T08:38:07;20.90;99.90
18581;DHT22;9420;50.876;7.012;2022-07-29T08:40:35;20.80;99.90
18581;DHT22;9420;50.876;7.012;2022-07-29T08:43:08;20.90;99.90
18581;DHT22;9420;50.876;7.012;2022-07-29T08:45:42;21.00;99.90
18581;DHT22;9420;50.876;7.012;2022-07-29T08:48:11;21.00;99.90
18581;DHT22;9420;50.876;7.012;2022-07-29T08:50:39;20.90;99.90
18581;DHT22;9420;50.876;7.012;2022-07-29T08:53:11;21.00;99.90
18581;DHT22;9420;50.876;7.012;2022-07-29T08:55:40;21.00;99.90
18581;DHT22;9420;50.876;7.012;2022-07-29T08:58:11;21.10;99.90
18581;DHT22;9420;50.876;7.012;2022-07-29T09:00:42;21.30;99.90
18581;DHT22;9420;50.876;7.012;2022-07-29T09:03:14;21.30;99.90
18581;DHT22;9420;50.876;7.012;2022-07-29T09:05:45;21.40;99.90
18581;DHT22;9420;50.876;7.012;2022-07-29T09:08:13;21.50;99.90
18581;DHT22;9420;50.876;7.012;2022-07-29T09:10:41;21.50;99.90
18581;DHT22;9420;50.876;7.012;2022-07-29T09:13:09;21.70;99.90
18581;DHT22;9420;50.876;7.012;2022-07-29T09:15:37;22.00;99.90
18581;DHT22;9420;50.876;7.012;2022-07-29T09:18:04;22.10;99.90
18581;DHT22;9420;50.876;7.012;2022-07-29T09:20:31;22.50;99.90
18581;DHT22;9420;50.876;7.012;2022-07-29T09:23:13;22.70;99.90
18581;DHT22;9420;50.876;7.012;2022-07-29T09:25:41;22.50;99.90
18581;DHT22;9420;50.876;7.012;2022-07-29T09:28:12;22.50;99.90
18581;DHT22;9420;50.876;7.012;2022-07-29T09:30:50;22.20;99.90
18581;DHT22;9420;50.876;7.012;2022-07-29T09:33:19;22.30;99.90
18581;DHT22;9420;50.876;7.012;2022-07-29T09:35:58;22.40;99.90
18581;DHT22;9420;50.876;7.012;2022-07-29T09:38:26;22.50;99.90
18581;DHT22;9420;50.876;7.012;2022-07-29T09:40:56;22.50;99.90
18581;DHT22;9420;50.876;7.012;2022-07-29T09:43:26;22.60;99.90
18581;DHT22;9420;50.876;7.012;2022-07-29T09:45:54;22.30;99.90
18581;DHT22;9420;50.876;7.012;2022-07-29T09:48:25;22.40;99.90
18581;DHT22;9420;50.876;7.012;2022-07-29T09:50:52;22.30;99.90
18581;DHT22;9420;50.876;7.012;2022-07-29T09:53:30;22.30;99.90
18581;DHT22;9420;50.876;7.012;2022-07-29T09:55:59;22.60;99.90
18581;DHT22;9420;50.876;7.012;2022-07-29T09:58:28;22.80;99.90
18581;DHT22;9420;50.876;7.012;2022-07-29T10:00:56;22.90;99.90
18581;DHT22;9420;50.876;7.012;2022-07-29T10:03:23;23.10;99.90
18581;DHT22;9420;50.876;7.012;2022-07-29T10:06:08;23.20;99.90
18581;DHT22;9420;50.876;7.012;2022-07-29T10:08:36;23.40;99.90
18581;DHT22;9420;50.876;7.012;2022-07-29T10:11:10;23.50;99.90
18581;DHT22;9420;50.876;7.012;2022-07-29T10:13:40;23.60;99.90
18581;DHT22;9420;50.876;7.012;2022-07-29T10:16:09;23.70;99.90
18581;DHT22;9420;50.876;7.012;2022-07-29T10:18:37;24.10;99.90
18581;DHT22;9420;50.876;7.012;2022-07-29T10:21:05;24.40;99.90
18581;DHT22;9420;50.876;7.012;2022-07-29T10:23:34;24.60;99.90
18581;DHT22;9420;50.876;7.012;2022-07-29T10:26:02;24.60;99.90
18581;DHT22;9420;50.876;7.012;2022-07-29T10:28:30;24.70;99.90
18581;DHT22;9420;50.876;7.012;2022-07-29T10:31:03;24.40;99.90
18581;DHT22;9420;50.876;7.012;2022-07-29T10:33:45;24.60;99.90
18581;DHT22;9420;50.876;7.012;2022-07-29T10:36:38;24.70;99.90
18581;DHT22;9420;50.876;7.012;2022-07-29T10:39:21;24.90;99.90
18581;DHT22;9420;50.876;7.012;2022-07-29T10:42:05;25.00;99.90
18581;DHT22;9420;50.876;7.012;2022-07-29T10:44:43;25.10;99.90
18581;DHT22;9420;50.876;7.012;2022-07-29T10:47:25;24.70;99.90
18581;DHT22;9420;50.876;7.012;2022-07-29T10:49:58;25.30;99.90
18581;DHT22;9420;50.876;7.012;2022-07-29T10:52:53;26.00;99.90
18581;DHT22;9420;50.876;7.012;2022-07-29T10:55:33;25.90;99.90
18581;DHT22;9420;50.876;7.012;2022-07-29T10:58:16;26.20;99.90
18581;DHT22;9420;50.876;7.012;2022-07-29T11:00:45;26.70;99.90
18581;DHT22;9420;50.876;7.012;2022-07-29T11:03:45;26.60;99.90
18581;DHT22;9420;50.876;7.012;2022-07-29T11:06:13;27.40;99.90
18581;DHT22;9420;50.876;7.012;2022-07-29T11:08:41;27.20;99.90
18581;DHT22;9420;50.876;7.012;2022-07-29T11:11:35;27.40;99.90
18581;DHT22;9420;50.876;7.012;2022-07-29T11:14:06;27.40;99.90
18581;DHT22;9420;50.876;7.012;2022-07-29T11:16:59;28.30;99.90
18581;DHT22;9420;50.876;7.012;2022-07-29T11:19:41;28.40;99.90
18581;DHT22;9420;50.876;7.012;2022-07-29T11:22:09;28.70;99.90
18581;DHT22;9420;50.876;7.012;2022-07-29T11:24:37;28.90;99.90
18581;DHT22;9420;50.876;7.012;2022-07-29T11:27:13;28.70;99.90
18581;DHT22;9420;50.876;7.012;2022-07-29T11:29:53;28.10;99.90
18581;DHT22;9420;50.876;7.012;2022-07-29T11:32:23;27.50;99.90
18581;DHT22;9420;50.876;7.012;2022-07-29T11:35:17;27.40;99.90
18581;DHT22;9420;50.876;7.012;2022-07-29T11:37:46;28.40;99.90
18581;DHT22;9420;50.876;7.012;2022-07-29T11:40:33;28.20;99.90
18581;DHT22;9420;50.876;7.012;2022-07-29T11:43:01;28.40;99.90
18581;DHT22;9420;50.876;7.012;2022-07-29T11:45:45;28.50;99.90
18581;DHT22;9420;50.876;7.012;2022-07-29T11:48:16;29.30;96.70
18581;DHT22;9420;50.876;7.012;2022-07-29T11:50:46;30.00;95.20
18581;DHT22;9420;50.876;7.012;2022-07-29T11:53:14;30.00;95.60
18581;DHT22;9420;50.876;7.012;2022-07-29T11:55:42;30.80;93.60
18581;DHT22;9420;50.876;7.012;2022-07-29T11:58:09;30.90;90.50
18581;DHT22;9420;50.876;7.012;2022-07-29T12:00:39;30.50;91.90
18581;DHT22;9420;50.876;7.012;2022-07-29T12:03:10;31.10;91.10
18581;DHT22;9420;50.876;7.012;2022-07-29T12:05:40;30.40;90.60
18581;DHT22;9420;50.876;7.012;2022-07-29T12:08:13;29.70;93.40
18581;DHT22;9420;50.876;7.012;2022-07-29T12:10:45;29.80;92.20
18581;DHT22;9420;50.876;7.012;2022-07-29T12:13:13;30.80;91.90
18581;DHT22;9420;50.876;7.012;2022-07-29T12:15:42;31.00;90.70
18581;DHT22;9420;50.876;7.012;2022-07-29T12:18:18;30.00;89.80
18581;DHT22;9420;50.876;7.012;2022-07-29T12:20:47;28.60;91.30
18581;DHT22;9420;50.876;7.012;2022-07-29T12:23:16;27.80;93.50
18581;DHT22;9420;50.876;7.012;2022-07-29T12:25:43;27.40;94.70
18581;DHT22;9420;50.876;7.012;2022-07-29T12:28:12;27.10;96.10
18581;DHT22;9420;50.876;7.012;2022-07-29T12:30:45;26.70;96.80
18581;DHT22;9420;50.876;7.012;2022-07-29T12:33:19;26.70;97.70
18581;DHT22;9420;50.876;7.012;2022-07-29T12:35:50;27.70;97.50
18581;DHT22;9420;50.876;7.012;2022-07-29T12:38:20;29.00;95.50
18581;DHT22;9420;50.876;7.012;2022-07-29T12:40:49;29.20;94.50
18581;DHT22;9420;50.876;7.012;2022-07-29T12:43:20;28.90;93.60
18581;DHT22;9420;50.876;7.012;2022-07-29T12:45:50;29.70;93.20
18581;DHT22;9420;50.876;7.012;2022-07-29T12:48:32;30.10;92.50
18581;DHT22;9420;50.876;7.012;2022-07-29T12:51:02;29.70;91.70
18581;DHT22;9420;50.876;7.012;2022-07-29T12:53:33;29.90;93.20
18581;DHT22;9420;50.876;7.012;2022-07-29T12:56:00;30.10;91.10
18581;DHT22;9420;50.876;7.012;2022-07-29T12:58:29;29.90;92.00
18581;DHT22;9420;50.876;7.012;2022-07-29T13:01:06;30.50;91.20
18581;DHT22;9420;50.876;7.012;2022-07-29T13:03:58;29.40;89.90
18581;DHT22;9420;50.876;7.012;2022-07-29T13:06:29;28.40;91.40
18581;DHT22;9420;50.876;7.012;2022-07-29T13:09:04;28.50;92.50
18581;DHT22;9420;50.876;7.012;2022-07-29T13:11:35;29.40;91.20
18581;DHT22;9420;50.876;7.012;2022-07-29T13:14:05;29.60;90.60
18581;DHT22;9420;50.876;7.012;2022-07-29T13:16:34;30.60;87.90
18581;DHT22;9420;50.876;7.012;2022-07-29T13:19:09;30.90;85.60
18581;DHT22;9420;50.876;7.012;2022-07-29T13:21:38;31.40;83.70
18581;DHT22;9420;50.876;7.012;2022-07-29T13:24:07;30.80;83.80
18581;DHT22;9420;50.876;7.012;2022-07-29T13:26:36;30.50;84.50
18581;DHT22;9420;50.876;7.012;2022-07-29T13:29:07;31.70;82.80
18581;DHT22;9420;50.876;7.012;2022-07-29T13:31:34;32.00;77.70
18581;DHT22;9420;50.876;7.012;2022-07-29T13:34:02;31.70;79.10
18581;DHT22;9420;50.876;7.012;2022-07-29T13:36:29;31.70;78.10
18581;DHT22;9420;50.876;7.012;2022-07-29T13:38:56;32.00;77.00
18581;DHT22;9420;50.876;7.012;2022-07-29T13:41:24;32.30;78.20
18581;DHT22;9420;50.876;7.012;2022-07-29T13:43:52;32.80;75.20
18581;DHT22;9420;50.876;7.012;2022-07-29T13:46:19;33.40;74.10
18581;DHT22;9420;50.876;7.012;2022-07-29T13:48:46;33.30;74.30
18581;DHT22;9420;50.876;7.012;2022-07-29T13:51:13;33.10;73.90
18581;DHT22;9420;50.876;7.012;2022-07-29T13:53:40;33.60;72.00
18581;DHT22;9420;50.876;7.012;2022-07-29T13:56:07;33.30;72.60
18581;DHT22;9420;50.876;7.012;2022-07-29T13:58:36;33.00;70.80
18581;DHT22;9420;50.876;7.012;2022-07-29T14:01:03;32.90;73.10
18581;DHT22;9420;50.876;7.012;2022-07-29T14:03:30;32.90;76.00
18581;DHT22;9420;50.876;7.012;2022-07-29T14:05:58;34.00;74.80
18581;DHT22;9420;50.876;7.012;2022-07-29T14:08:26;34.20;75.20
18581;DHT22;9420;50.876;7.012;2022-07-29T14:10:53;34.60;72.40
18581;DHT22;9420;50.876;7.012;2022-07-29T14:13:20;35.00;72.90
18581;DHT22;9420;50.876;7.012;2022-07-29T14:15:49;33.50;72.30
18581;DHT22;9420;50.876;7.012;2022-07-29T14:18:16;32.90;72.30
18581;DHT22;9420;50.876;7.012;2022-07-29T14:20:43;32.50;75.80
18581;DHT22;9420;50.876;7.012;2022-07-29T14:23:10;33.30;74.80
18581;DHT22;9420;50.876;7.012;2022-07-29T14:25:37;33.70;70.70
18581;DHT22;9420;50.876;7.012;2022-07-29T14:28:04;34.20;71.30
18581;DHT22;9420;50.876;7.012;2022-07-29T14:30:31;34.20;70.20
18581;DHT22;9420;50.876;7.012;2022-07-29T14:33:01;32.10;72.00
18581;DHT22;9420;50.876;7.012;2022-07-29T14:35:28;31.40;74.50
18581;DHT22;9420;50.876;7.012;2022-07-29T14:37:55;31.70;73.60
18581;DHT22;9420;50.876;7.012;2022-07-29T14:40:23;31.90;76.40
18581;DHT22;9420;50.876;7.012;2022-07-29T14:42:51;31.20;74.10
18581;DHT22;9420;50.876;7.012;2022-07-29T14:45:19;30.10;75.20
18581;DHT22;9420;50.876;7.012;2022-07-29T14:47:46;30.00;77.20
18581;DHT22;9420;50.876;7.012;2022-07-29T14:50:16;31.10;79.90
18581;DHT22;9420;50.876;7.012;2022-07-29T14:52:43;30.50;76.30
18581;DHT22;9420;50.876;7.012;2022-07-29T14:55:10;30.40;77.00
18581;DHT22;9420;50.876;7.012;2022-07-29T14:57:38;31.70;78.20
18581;DHT22;9420;50.876;7.012;2022-07-29T15:00:07;32.50;75.20
18581;DHT22;9420;50.876;7.012;2022-07-29T15:02:35;32.10;75.70
18581;DHT22;9420;50.876;7.012;2022-07-29T15:05:02;30.90;74.80
18581;DHT22;9420;50.876;7.012;2022-07-29T15:07:31;30.90;77.60
18581;DHT22;9420;50.876;7.012;2022-07-29T15:09:59;30.60;77.50
18581;DHT22;9420;50.876;7.012;2022-07-29T15:12:26;31.40;78.10
18581;DHT22;9420;50.876;7.012;2022-07-29T15:14:53;31.30;76.50
18581;DHT22;9420;50.876;7.012;2022-07-29T15:17:20;31.20;77.50
18581;DHT22;9420;50.876;7.012;2022-07-29T15:19:47;31.50;75.70
18581;DHT22;9420;50.876;7.012;2022-07-29T15:22:14;31.80;77.00
18581;DHT22;9420;50.876;7.012;2022-07-29T15:24:43;32.60;72.50
18581;DHT22;9420;50.876;7.012;2022-07-29T15:27:10;33.20;72.00
18581;DHT22;9420;50.876;7.012;2022-07-29T15:29:39;33.80;70.70
18581;DHT22;9420;50.876;7.012;2022-07-29T15:32:07;34.50;69.20
18581;DHT22;9420;50.876;7.012;2022-07-29T15:34:34;35.10;69.10
18581;DHT22;9420;50.876;7.012;2022-07-29T15:37:01;35.90;66.70
18581;DHT22;9420;50.876;7.012;2022-07-29T15:39:29;35.60;65.90
18581;DHT22;9420;50.876;7.012;2022-07-29T15:41:57;33.60;66.10
18581;DHT22;9420;50.876;7.012;2022-07-29T15:44:25;33.30;67.80
18581;DHT22;9420;50.876;7.012;2022-07-29T15:46:52;32.50;69.00
18581;DHT22;9420;50.876;7.012;2022-07-29T15:49:28;33.10;67.90
18581;DHT22;9420;50.876;7.012;2022-07-29T15:51:57;34.10;66.10
18581;DHT22;9420;50.876;7.012;2022-07-29T15:54:25;34.30;66.10
18581;DHT22;9420;50.876;7.012;2022-07-29T15:56:53;34.10;65.10
18581;DHT22;9420;50.876;7.012;2022-07-29T15:59:22;34.50;65.60
18581;DHT22;9420;50.876;7.012;2022-07-29T16:01:49;33.70;65.80
18581;DHT22;9420;50.876;7.012;2022-07-29T16:04:16;32.40;67.20